sensor_id;sensor_type;location;lat;lon;timestamp;P1;durP1;ratioP1;P2;durP2;ratioP2
31584;SDS011;18191;51.288;12.390;2024-02-21T00:04:45;17.23;;;3.10;;
31584;SDS011;18191;51.288;12.390;2024-02-21T00:09:36;12.63;;;2.47;;
31584;SDS011;18191;51.288;12.390;2024-02-21T00:14:26;13.70;;;2.85;;
31584;SDS011;18191;51.288;12.390;2024-02-21T00:19:16;17.27;;;2.90;;
31584;SDS011;18191;51.288;12.390;2024-02-21T00:24:07;15.48;;;2.28;;
31584;SDS011;18191;51.288;12.390;2024-02-21T00:28:57;33.10;;;3.83;;
31584;SDS011;18191;51.288;12.390;2024-02-21T00:33:47;22.20;;;2.75;;
31584;SDS011;18191;51.288;12.390;2024-02-21T00:38:37;8.98;;;2.85;;
31584;SDS011;18191;51.288;12.390;2024-02-21T00:43:28;15.63;;;2.38;;
31584;SDS011;18191;51.288;12.390;2024-02-21T00:48:18;15.57;;;2.72;;
31584;SDS011;18191;51.288;12.390;2024-02-21T00:53:08;15.63;;;2.80;;
31584;SDS011;18191;51.288;12.390;2024-02-21T00:58:00;17.35;;;4.00;;
31584;SDS011;18191;51.288;12.390;2024-02-21T01:02:50;9.60;;;2.30;;
31584;SDS011;18191;51.288;12.390;2024-02-21T01:07:40;10.57;;;2.42;;
31584;SDS011;18191;51.288;12.390;2024-02-21T01:12:31;12.70;;;2.27;;
31584;SDS011;18191;51.288;12.390;2024-02-21T01:17:21;12.10;;;2.88;;
31584;SDS011;18191;51.288;12.390;2024-02-21T01:22:11;11.93;;;3.27;;
31584;SDS011;18191;51.288;12.390;2024-02-21T01:27:01;9.88;;;2.22;;
31584;SDS011;18191;51.288;12.390;2024-02-21T01:31:52;13.30;;;2.37;;
31584;SDS011;18191;51.288;12.390;2024-02-21T01:36:42;23.80;;;2.55;;
31584;SDS011;18191;51.288;12.390;2024-02-21T01:41:32;9.45;;;2.28;;
31584;SDS011;18191;51.288;12.390;2024-02-21T01:46:23;21.90;;;2.58;;
31584;SDS011;18191;51.288;12.390;2024-02-21T01:51:17;18.90;;;3.08;;
31584;SDS011;18191;51.288;12.390;2024-02-21T01:56:08;14.23;;;2.73;;
31584;SDS011;18191;51.288;12.390;2024-02-21T02:00:58;14.53;;;2.73;;
31584;SDS011;18191;51.288;12.390;2024-02-21T02:05:49;13.52;;;3.05;;
31584;SDS011;18191;51.288;12.390;2024-02-21T02:10:40;28.17;;;2.77;;
31584;SDS011;18191;51.288;12.390;2024-02-21T02:15:40;14.95;;;3.70;;
31584;SDS011;18191;51.288;12.390;2024-02-21T02:20:38;15.45;;;2.88;;
31584;SDS011;18191;51.288;12.390;2024-02-21T02:25:28;16.67;;;3.40;;
31584;SDS011;18191;51.288;12.390;2024-02-21T02:30:19;19.13;;;3.10;;
31584;SDS011;18191;51.288;12.390;2024-02-21T02:35:09;17.40;;;3.33;;
31584;SDS011;18191;51.288;12.390;2024-02-21T02:39:59;16.83;;;2.65;;
31584;SDS011;18191;51.288;12.390;2024-02-21T02:44:49;16.17;;;2.97;;
31584;SDS011;18191;51.288;12.390;2024-02-21T02:49:40;12.90;;;2.40;;
31584;SDS011;18191;51.288;12.390;2024-02-21T02:54:30;19.67;;;3.17;;
31584;SDS011;18191;51.288;12.390;2024-02-21T02:59:20;15.35;;;3.58;;
31584;SDS011;18191;51.288;12.390;2024-02-21T03:04:10;15.52;;;3.03;;
31584;SDS011;18191;51.288;12.390;2024-02-21T03:09:01;28.48;;;3.50;;
31584;SDS011;18191;51.288;12.390;2024-02-21T03:13:51;19.55;;;4.18;;
31584;SDS011;18191;51.288;12.390;2024-02-21T03:18:41;23.90;;;3.30;;
31584;SDS011;18191;51.288;12.390;2024-02-21T03:23:33;28.33;;;3.97;;
31584;SDS011;18191;51.288;12.390;2024-02-21T03:28:24;14.50;;;2.97;;
31584;SDS011;18191;51.288;12.390;2024-02-21T03:33:14;9.67;;;2.97;;
31584;SDS011;18191;51.288;12.390;2024-02-21T03:38:04;21.20;;;3.15;;
31584;SDS011;18191;51.288;12.390;2024-02-21T03:42:54;18.20;;;3.33;;
31584;SDS011;18191;51.288;12.390;2024-02-21T03:47:45;20.33;;;3.03;;
31584;SDS011;18191;51.288;12.390;2024-02-21T03:52:35;21.73;;;2.50;;
31584;SDS011;18191;51.288;12.390;2024-02-21T03:57:25;7.78;;;2.55;;
31584;SDS011;18191;51.288;12.390;2024-02-21T04:02:16;16.88;;;2.60;;
31584;SDS011;18191;51.288;12.390;2024-02-21T04:11:58;18.90;;;2.40;;
31584;SDS011;18191;51.288;12.390;2024-02-21T04:16:49;23.92;;;3.08;;
31584;SDS011;18191;51.288;12.390;2024-02-21T04:21:39;9.25;;;2.08;;
31584;SDS011;18191;51.288;12.390;2024-02-21T04:26:30;15.20;;;2.83;;
31584;SDS011;18191;51.288;12.390;2024-02-21T04:31:20;19.05;;;3.15;;
31584;SDS011;18191;51.288;12.390;2024-02-21T04:36:10;9.27;;;2.72;;
31584;SDS011;18191;51.288;12.390;2024-02-21T04:41:00;13.18;;;2.90;;
31584;SDS011;18191;51.288;12.390;2024-02-21T04:45:51;19.23;;;2.75;;
31584;SDS011;18191;51.288;12.390;2024-02-21T04:50:43;22.65;;;3.40;;
31584;SDS011;18191;51.288;12.390;2024-02-21T04:55:33;16.47;;;3.20;;
31584;SDS011;18191;51.288;12.390;2024-02-21T05:00:24;14.57;;;2.80;;
31584;SDS011;18191;51.288;12.390;2024-02-21T05:05:14;18.53;;;3.37;;
31584;SDS011;18191;51.288;12.390;2024-02-21T05:10:07;15.40;;;3.63;;
31584;SDS011;18191;51.288;12.390;2024-02-21T05:14:57;12.07;;;2.92;;
31584;SDS011;18191;51.288;12.390;2024-02-21T05:19:47;30.63;;;3.30;;
31584;SDS011;18191;51.288;12.390;2024-02-21T05:24:38;12.23;;;2.47;;
31584;SDS011;18191;51.288;12.390;2024-02-21T05:29:29;11.73;;;3.28;;
31584;SDS011;18191;51.288;12.390;2024-02-21T05:34:20;10.45;;;2.83;;
31584;SDS011;18191;51.288;12.390;2024-02-21T05:39:10;9.05;;;3.35;;
31584;SDS011;18191;51.288;12.390;2024-02-21T05:44:00;22.98;;;3.08;;
31584;SDS011;18191;51.288;12.390;2024-02-21T05:48:51;25.37;;;3.70;;
31584;SDS011;18191;51.288;12.390;2024-02-21T05:53:41;13.70;;;3.83;;
31584;SDS011;18191;51.288;12.390;2024-02-21T05:58:32;25.40;;;4.20;;
31584;SDS011;18191;51.288;12.390;2024-02-21T06:03:22;20.02;;;3.60;;
31584;SDS011;18191;51.288;12.390;2024-02-21T06:08:12;21.85;;;3.35;;
31584;SDS011;18191;51.288;12.390;2024-02-21T06:13:02;17.95;;;3.53;;
31584;SDS011;18191;51.288;12.390;2024-02-21T06:17:53;28.03;;;3.57;;
31584;SDS011;18191;51.288;12.390;2024-02-21T06:22:43;12.82;;;3.90;;
31584;SDS011;18191;51.288;12.390;2024-02-21T06:27:33;27.45;;;4.05;;
31584;SDS011;18191;51.288;12.390;2024-02-21T06:32:24;10.93;;;3.65;;
31584;SDS011;18191;51.288;12.390;2024-02-21T06:37:14;15.98;;;3.22;;
31584;SDS011;18191;51.288;12.390;2024-02-21T06:42:04;18.38;;;3.33;;
31584;SDS011;18191;51.288;12.390;2024-02-21T06:46:54;26.23;;;4.30;;
31584;SDS011;18191;51.288;12.390;2024-02-21T06:51:45;13.80;;;3.27;;
31584;SDS011;18191;51.288;12.390;2024-02-21T06:56:36;16.57;;;3.57;;
31584;SDS011;18191;51.288;12.390;2024-02-21T07:06:17;13.10;;;3.43;;
31584;SDS011;18191;51.288;12.390;2024-02-21T07:11:07;7.93;;;3.07;;
31584;SDS011;18191;51.288;12.390;2024-02-21T07:15:58;11.27;;;3.35;;
31584;SDS011;18191;51.288;12.390;2024-02-21T07:20:48;20.83;;;4.50;;
31584;SDS011;18191;51.288;12.390;2024-02-21T07:25:38;13.82;;;3.35;;
31584;SDS011;18191;51.288;12.390;2024-02-21T07:30:29;13.65;;;3.10;;
31584;SDS011;18191;51.288;12.390;2024-02-21T07:35:20;12.27;;;3.20;;
31584;SDS011;18191;51.288;12.390;2024-02-21T07:40:13;20.90;;;3.47;;
31584;SDS011;18191;51.288;12.390;2024-02-21T07:45:06;15.40;;;3.08;;
31584;SDS011;18191;51.288;12.390;2024-02-21T07:50:01;18.92;;;3.47;;
31584;SDS011;18191;51.288;12.390;2024-02-21T07:54:52;14.82;;;3.97;;
31584;SDS011;18191;51.288;12.390;2024-02-21T07:59:42;12.65;;;4.07;;
31584;SDS011;18191;51.288;12.390;2024-02-21T08:04:33;14.17;;;3.77;;
31584;SDS011;18191;51.288;12.390;2024-02-21T08:09:23;11.27;;;3.40;;
31584;SDS011;18191;51.288;12.390;2024-02-21T08:14:13;17.15;;;4.63;;
31584;SDS011;18191;51.288;12.390;2024-02-21T08:19:06;22.65;;;5.25;;
31584;SDS011;18191;51.288;12.390;2024-02-21T08:23:56;19.80;;;4.45;;
31584;SDS011;18191;51.288;12.390;2024-02-21T08:28:46;18.27;;;4.27;;
31584;SDS011;18191;51.288;12.390;2024-02-21T08:33:36;15.53;;;4.33;;
31584;SDS011;18191;51.288;12.390;2024-02-21T08:38:27;21.37;;;3.70;;
31584;SDS011;18191;51.288;12.390;2024-02-21T08:43:17;19.35;;;5.03;;
31584;SDS011;18191;51.288;12.390;2024-02-21T08:48:07;8.80;;;3.60;;
31584;SDS011;18191;51.288;12.390;2024-02-21T08:52:58;9.57;;;3.60;;
31584;SDS011;18191;51.288;12.390;2024-02-21T08:57:48;13.63;;;3.92;;
31584;SDS011;18191;51.288;12.390;2024-02-21T09:02:40;15.73;;;4.53;;
31584;SDS011;18191;51.288;12.390;2024-02-21T09:07:31;10.15;;;3.65;;
31584;SDS011;18191;51.288;12.390;2024-02-21T09:12:21;12.13;;;3.87;;
31584;SDS011;18191;51.288;12.390;2024-02-21T09:17:12;11.77;;;3.95;;
31584;SDS011;18191;51.288;12.390;2024-02-21T09:22:02;22.60;;;4.72;;
31584;SDS011;18191;51.288;12.390;2024-02-21T09:26:53;18.73;;;4.40;;
31584;SDS011;18191;51.288;12.390;2024-02-21T09:31:43;11.40;;;3.77;;
31584;SDS011;18191;51.288;12.390;2024-02-21T09:36:33;16.77;;;4.05;;
31584;SDS011;18191;51.288;12.390;2024-02-21T09:46:18;13.20;;;3.88;;
31584;SDS011;18191;51.288;12.390;2024-02-21T09:56:00;17.05;;;4.28;;
31584;SDS011;18191;51.288;12.390;2024-02-21T10:00:51;20.67;;;4.70;;
31584;SDS011;18191;51.288;12.390;2024-02-21T10:05:46;16.95;;;3.88;;
31584;SDS011;18191;51.288;12.390;2024-02-21T10:10:40;27.08;;;4.85;;
31584;SDS011;18191;51.288;12.390;2024-02-21T10:15:34;20.48;;;3.67;;
31584;SDS011;18191;51.288;12.390;2024-02-21T10:20:24;19.20;;;4.43;;
31584;SDS011;18191;51.288;12.390;2024-02-21T10:25:15;19.15;;;4.45;;
31584;SDS011;18191;51.288;12.390;2024-02-21T10:30:06;13.63;;;4.70;;
31584;SDS011;18191;51.288;12.390;2024-02-21T10:35:02;15.07;;;3.65;;
31584;SDS011;18191;51.288;12.390;2024-02-21T10:39:56;14.15;;;3.75;;
31584;SDS011;18191;51.288;12.390;2024-02-21T10:44:47;10.88;;;3.88;;
31584;SDS011;18191;51.288;12.390;2024-02-21T10:49:41;14.70;;;3.63;;
31584;SDS011;18191;51.288;12.390;2024-02-21T10:59:46;16.67;;;4.07;;
31584;SDS011;18191;51.288;12.390;2024-02-21T11:04:38;9.80;;;3.70;;
31584;SDS011;18191;51.288;12.390;2024-02-21T11:09:30;18.75;;;4.13;;
31584;SDS011;18191;51.288;12.390;2024-02-21T11:14:22;21.58;;;4.35;;
31584;SDS011;18191;51.288;12.390;2024-02-21T11:19:23;10.60;;;3.05;;
31584;SDS011;18191;51.288;12.390;2024-02-21T11:24:33;15.63;;;3.20;;
31584;SDS011;18191;51.288;12.390;2024-02-21T11:29:24;7.68;;;2.50;;
31584;SDS011;18191;51.288;12.390;2024-02-21T11:34:17;10.38;;;2.72;;
31584;SDS011;18191;51.288;12.390;2024-02-21T11:39:08;14.35;;;3.15;;
31584;SDS011;18191;51.288;12.390;2024-02-21T11:43:59;17.80;;;3.22;;
31584;SDS011;18191;51.288;12.390;2024-02-21T11:48:49;11.95;;;2.90;;
31584;SDS011;18191;51.288;12.390;2024-02-21T11:53:40;21.27;;;4.43;;
31584;SDS011;18191;51.288;12.390;2024-02-21T11:58:31;6.00;;;2.33;;
31584;SDS011;18191;51.288;12.390;2024-02-21T12:03:21;9.75;;;2.35;;
31584;SDS011;18191;51.288;12.390;2024-02-21T12:08:12;14.38;;;1.98;;
31584;SDS011;18191;51.288;12.390;2024-02-21T12:13:08;6.32;;;1.73;;
31584;SDS011;18191;51.288;12.390;2024-02-21T12:17:59;7.80;;;1.88;;
31584;SDS011;18191;51.288;12.390;2024-02-21T12:22:49;6.35;;;1.90;;
31584;SDS011;18191;51.288;12.390;2024-02-21T12:27:40;7.83;;;1.87;;
31584;SDS011;18191;51.288;12.390;2024-02-21T12:32:30;5.40;;;1.50;;
31584;SDS011;18191;51.288;12.390;2024-02-21T12:37:21;9.98;;;1.98;;
31584;SDS011;18191;51.288;12.390;2024-02-21T12:42:14;9.73;;;2.00;;
31584;SDS011;18191;51.288;12.390;2024-02-21T12:47:04;6.27;;;2.87;;
31584;SDS011;18191;51.288;12.390;2024-02-21T12:51:55;11.63;;;1.70;;
31584;SDS011;18191;51.288;12.390;2024-02-21T12:56:45;8.52;;;2.17;;
31584;SDS011;18191;51.288;12.390;2024-02-21T13:01:36;9.23;;;1.98;;
31584;SDS011;18191;51.288;12.390;2024-02-21T13:06:27;4.78;;;1.40;;
31584;SDS011;18191;51.288;12.390;2024-02-21T13:11:17;3.70;;;1.80;;
31584;SDS011;18191;51.288;12.390;2024-02-21T13:16:09;6.93;;;1.83;;
31584;SDS011;18191;51.288;12.390;2024-02-21T13:21:00;6.00;;;1.83;;
31584;SDS011;18191;51.288;12.390;2024-02-21T13:25:50;7.25;;;2.38;;
31584;SDS011;18191;51.288;12.390;2024-02-21T13:30:41;9.23;;;2.17;;
31584;SDS011;18191;51.288;12.390;2024-02-21T13:35:31;12.55;;;2.13;;
31584;SDS011;18191;51.288;12.390;2024-02-21T13:40:21;4.43;;;1.52;;
31584;SDS011;18191;51.288;12.390;2024-02-21T13:45:12;7.60;;;1.70;;
31584;SDS011;18191;51.288;12.390;2024-02-21T13:50:02;4.05;;;1.80;;
31584;SDS011;18191;51.288;12.390;2024-02-21T13:54:59;10.10;;;1.27;;
31584;SDS011;18191;51.288;12.390;2024-02-21T13:59:49;7.05;;;1.40;;
31584;SDS011;18191;51.288;12.390;2024-02-21T14:04:39;6.88;;;2.42;;
31584;SDS011;18191;51.288;12.390;2024-02-21T14:09:30;6.00;;;1.52;;
31584;SDS011;18191;51.288;12.390;2024-02-21T14:14:20;6.53;;;1.60;;
31584;SDS011;18191;51.288;12.390;2024-02-21T14:19:11;7.40;;;1.50;;
31584;SDS011;18191;51.288;12.390;2024-02-21T14:24:01;4.30;;;1.52;;
31584;SDS011;18191;51.288;12.390;2024-02-21T14:28:52;4.82;;;1.10;;
31584;SDS011;18191;51.288;12.390;2024-02-21T14:33:43;7.05;;;1.20;;
31584;SDS011;18191;51.288;12.390;2024-02-21T14:38:33;7.53;;;1.58;;
31584;SDS011;18191;51.288;12.390;2024-02-21T14:43:25;3.95;;;1.15;;
31584;SDS011;18191;51.288;12.390;2024-02-21T14:48:16;7.35;;;1.58;;
31584;SDS011;18191;51.288;12.390;2024-02-21T14:53:07;11.52;;;1.70;;
31584;SDS011;18191;51.288;12.390;2024-02-21T14:58:00;5.22;;;1.52;;
31584;SDS011;18191;51.288;12.390;2024-02-21T15:02:51;14.65;;;2.00;;
31584;SDS011;18191;51.288;12.390;2024-02-21T15:07:41;9.82;;;1.45;;
31584;SDS011;18191;51.288;12.390;2024-02-21T15:12:32;11.50;;;2.70;;
31584;SDS011;18191;51.288;12.390;2024-02-21T15:17:24;9.75;;;1.38;;
31584;SDS011;18191;51.288;12.390;2024-02-21T15:22:14;7.93;;;1.48;;
31584;SDS011;18191;51.288;12.390;2024-02-21T15:27:05;5.55;;;1.60;;
31584;SDS011;18191;51.288;12.390;2024-02-21T15:31:55;7.50;;;1.50;;
31584;SDS011;18191;51.288;12.390;2024-02-21T15:36:46;8.07;;;1.48;;
31584;SDS011;18191;51.288;12.390;2024-02-21T15:41:36;16.47;;;1.70;;
31584;SDS011;18191;51.288;12.390;2024-02-21T15:46:27;12.37;;;1.80;;
31584;SDS011;18191;51.288;12.390;2024-02-21T15:51:17;13.43;;;2.15;;
31584;SDS011;18191;51.288;12.390;2024-02-21T15:56:07;7.80;;;2.00;;
31584;SDS011;18191;51.288;12.390;2024-02-21T16:00:57;10.70;;;1.60;;
31584;SDS011;18191;51.288;12.390;2024-02-21T16:05:49;9.75;;;1.80;;
31584;SDS011;18191;51.288;12.390;2024-02-21T16:10:39;14.63;;;2.45;;
31584;SDS011;18191;51.288;12.390;2024-02-21T16:15:29;12.43;;;2.83;;
31584;SDS011;18191;51.288;12.390;2024-02-21T16:20:20;8.90;;;1.77;;
31584;SDS011;18191;51.288;12.390;2024-02-21T16:25:11;14.45;;;2.13;;
31584;SDS011;18191;51.288;12.390;2024-02-21T16:30:03;11.25;;;1.98;;
31584;SDS011;18191;51.288;12.390;2024-02-21T16:34:55;12.95;;;2.58;;
31584;SDS011;18191;51.288;12.390;2024-02-21T16:39:45;6.57;;;1.95;;
31584;SDS011;18191;51.288;12.390;2024-02-21T16:44:36;6.13;;;1.90;;
31584;SDS011;18191;51.288;12.390;2024-02-21T16:49:27;7.35;;;1.60;;
31584;SDS011;18191;51.288;12.390;2024-02-21T16:54:21;9.77;;;1.50;;
31584;SDS011;18191;51.288;12.390;2024-02-21T16:59:12;11.27;;;1.73;;
31584;SDS011;18191;51.288;12.390;2024-02-21T17:04:03;6.27;;;1.90;;
31584;SDS011;18191;51.288;12.390;2024-02-21T17:08:53;5.75;;;1.45;;
31584;SDS011;18191;51.288;12.390;2024-02-21T17:13:45;8.60;;;1.88;;
31584;SDS011;18191;51.288;12.390;2024-02-21T17:18:35;9.97;;;1.63;;
31584;SDS011;18191;51.288;12.390;2024-02-21T17:23:26;8.93;;;1.90;;
31584;SDS011;18191;51.288;12.390;2024-02-21T17:28:16;12.60;;;3.47;;
31584;SDS011;18191;51.288;12.390;2024-02-21T17:33:06;11.43;;;1.80;;
31584;SDS011;18191;51.288;12.390;2024-02-21T17:37:57;13.35;;;1.95;;
31584;SDS011;18191;51.288;12.390;2024-02-21T17:42:47;8.55;;;1.95;;
31584;SDS011;18191;51.288;12.390;2024-02-21T17:47:37;10.73;;;2.10;;
31584;SDS011;18191;51.288;12.390;2024-02-21T17:52:28;10.27;;;1.65;;
31584;SDS011;18191;51.288;12.390;2024-02-21T17:57:19;6.45;;;2.03;;
31584;SDS011;18191;51.288;12.390;2024-02-21T18:02:09;6.43;;;1.50;;
31584;SDS011;18191;51.288;12.390;2024-02-21T18:06:59;4.20;;;1.55;;
31584;SDS011;18191;51.288;12.390;2024-02-21T18:11:50;8.65;;;1.65;;
31584;SDS011;18191;51.288;12.390;2024-02-21T18:16:40;13.63;;;1.97;;
31584;SDS011;18191;51.288;12.390;2024-02-21T18:21:30;8.43;;;1.70;;
31584;SDS011;18191;51.288;12.390;2024-02-21T18:26:22;15.27;;;1.83;;
31584;SDS011;18191;51.288;12.390;2024-02-21T18:31:13;4.13;;;1.52;;
31584;SDS011;18191;51.288;12.390;2024-02-21T18:36:04;9.53;;;2.83;;
31584;SDS011;18191;51.288;12.390;2024-02-21T18:40:55;12.23;;;2.58;;
31584;SDS011;18191;51.288;12.390;2024-02-21T18:45:45;8.27;;;1.35;;
31584;SDS011;18191;51.288;12.390;2024-02-21T18:50:35;6.10;;;1.90;;
31584;SDS011;18191;51.288;12.390;2024-02-21T18:55:26;6.93;;;1.57;;
31584;SDS011;18191;51.288;12.390;2024-02-21T19:00:16;5.65;;;1.42;;
31584;SDS011;18191;51.288;12.390;2024-02-21T19:05:12;6.85;;;1.58;;
31584;SDS011;18191;51.288;12.390;2024-02-21T19:10:02;15.27;;;2.20;;
31584;SDS011;18191;51.288;12.390;2024-02-21T19:14:53;3.00;;;1.60;;
31584;SDS011;18191;51.288;12.390;2024-02-21T19:19:44;4.50;;;1.63;;
31584;SDS011;18191;51.288;12.390;2024-02-21T19:24:36;13.68;;;2.25;;
31584;SDS011;18191;51.288;12.390;2024-02-21T19:29:27;14.95;;;1.95;;
31584;SDS011;18191;51.288;12.390;2024-02-21T19:34:17;6.50;;;1.80;;
31584;SDS011;18191;51.288;12.390;2024-02-21T19:39:08;15.63;;;2.03;;
31584;SDS011;18191;51.288;12.390;2024-02-21T19:44:01;10.90;;;1.80;;
31584;SDS011;18191;51.288;12.390;2024-02-21T19:48:52;9.00;;;2.00;;
31584;SDS011;18191;51.288;12.390;2024-02-21T19:53:43;9.95;;;1.42;;
31584;SDS011;18191;51.288;12.390;2024-02-21T19:58:33;13.18;;;1.60;;
31584;SDS011;18191;51.288;12.390;2024-02-21T20:03:23;6.73;;;1.40;;
31584;SDS011;18191;51.288;12.390;2024-02-21T20:08:15;7.22;;;1.50;;
31584;SDS011;18191;51.288;12.390;2024-02-21T20:13:07;15.75;;;2.42;;
31584;SDS011;18191;51.288;12.390;2024-02-21T20:17:57;5.17;;;1.30;;
31584;SDS011;18191;51.288;12.390;2024-02-21T20:27:39;4.83;;;1.20;;
31584;SDS011;18191;51.288;12.390;2024-02-21T20:32:29;5.30;;;1.40;;
31584;SDS011;18191;51.288;12.390;2024-02-21T20:37:20;8.63;;;1.30;;
31584;SDS011;18191;51.288;12.390;2024-02-21T20:42:10;5.97;;;1.53;;
31584;SDS011;18191;51.288;12.390;2024-02-21T20:47:01;5.23;;;1.27;;
31584;SDS011;18191;51.288;12.390;2024-02-21T20:51:53;8.52;;;1.23;;
31584;SDS011;18191;51.288;12.390;2024-02-21T20:56:43;3.33;;;1.43;;
31584;SDS011;18191;51.288;12.390;2024-02-21T21:01:33;4.38;;;1.13;;
31584;SDS011;18191;51.288;12.390;2024-02-21T21:06:23;6.82;;;1.25;;
31584;SDS011;18191;51.288;12.390;2024-02-21T21:11:14;5.93;;;1.27;;
31584;SDS011;18191;51.288;12.390;2024-02-21T21:16:04;6.47;;;1.57;;
31584;SDS011;18191;51.288;12.390;2024-02-21T21:20:55;16.27;;;2.65;;
31584;SDS011;18191;51.288;12.390;2024-02-21T21:25:46;3.33;;;1.45;;
31584;SDS011;18191;51.288;12.390;2024-02-21T21:30:37;4.70;;;1.02;;
31584;SDS011;18191;51.288;12.390;2024-02-21T21:35:27;7.30;;;1.85;;
31584;SDS011;18191;51.288;12.390;2024-02-21T21:40:17;10.65;;;1.30;;
31584;SDS011;18191;51.288;12.390;2024-02-21T21:45:08;6.70;;;1.00;;
31584;SDS011;18191;51.288;12.390;2024-02-21T21:49:59;4.93;;;1.30;;
31584;SDS011;18191;51.288;12.390;2024-02-21T21:54:49;8.23;;;1.50;;
31584;SDS011;18191;51.288;12.390;2024-02-21T21:59:40;10.65;;;1.20;;
31584;SDS011;18191;51.288;12.390;2024-02-21T22:04:30;6.30;;;1.37;;
31584;SDS011;18191;51.288;12.390;2024-02-21T22:09:21;9.43;;;1.77;;
31584;SDS011;18191;51.288;12.390;2024-02-21T22:14:11;5.57;;;1.47;;
31584;SDS011;18191;51.288;12.390;2024-02-21T22:19:02;5.60;;;1.30;;
31584;SDS011;18191;51.288;12.390;2024-02-21T22:23:52;5.93;;;1.08;;
31584;SDS011;18191;51.288;12.390;2024-02-21T22:28:42;2.40;;;1.00;;
31584;SDS011;18191;51.288;12.390;2024-02-21T22:33:34;3.10;;;1.15;;
31584;SDS011;18191;51.288;12.390;2024-02-21T22:38:24;7.03;;;1.13;;
31584;SDS011;18191;51.288;12.390;2024-02-21T22:43:15;4.87;;;1.53;;
31584;SDS011;18191;51.288;12.390;2024-02-21T22:48:05;7.80;;;1.48;;
31584;SDS011;18191;51.288;12.390;2024-02-21T22:52:56;8.18;;;1.15;;
31584;SDS011;18191;51.288;12.390;2024-02-21T22:57:46;2.23;;;0.90;;
31584;SDS011;18191;51.288;12.390;2024-02-21T23:02:37;7.63;;;1.33;;
31584;SDS011;18191;51.288;12.390;2024-02-21T23:07:27;4.13;;;1.00;;
31584;SDS011;18191;51.288;12.390;2024-02-21T23:12:17;2.67;;;0.80;;
31584;SDS011;18191;51.288;12.390;2024-02-21T23:17:10;2.58;;;0.90;;
31584;SDS011;18191;51.288;12.390;2024-02-21T23:22:00;3.70;;;1.00;;
31584;SDS011;18191;51.288;12.390;2024-02-21T23:26:51;2.63;;;0.70;;
31584;SDS011;18191;51.288;12.390;2024-02-21T23:31:41;2.20;;;0.87;;
31584;SDS011;18191;51.288;12.390;2024-02-21T23:36:31;7.83;;;1.10;;
31584;SDS011;18191;51.288;12.390;2024-02-21T23:41:22;3.28;;;0.93;;
31584;SDS011;18191;51.288;12.390;2024-02-21T23:46:12;4.22;;;0.82;;
31584;SDS011;18191;51.288;12.390;2024-02-21T23:51:04;7.38;;;0.85;;
31584;SDS011;18191;51.288;12.390;2024-02-21T23:55:54;4.88;;;0.77;;
